Time;durP1;ratioP1;P1;durP2;ratioP2;P2;SDS_P1;SDS_P2;PMS_P1;PMS_P2;Temp;Humidity;BMP_temperature;BMP_pressure;BME280_temperature;BME280_humidity;BME280_pressure;Samples;Min_cycle;Max_cycle;Signal;HPM_P1;HPM_P2
2023/09/12 00:02:16;;;;;;;15.35;8.57;;;18.60;99.90;;;17.71;100.00;97289.25;5059830;28;20135;-76
2023/09/12 00:04:43;;;;;;;13.65;7.60;;;18.60;99.90;;;17.77;100.00;97296.69;5053919;28;20048;-76
2023/09/12 00:07:10;;;;;;;10.45;7.47;;;18.60;99.90;;;17.78;100.00;97287.84;5059987;28;20393;-76
2023/09/12 00:09:37;;;;;;;11.93;8.55;;;18.60;99.90;;;17.67;100.00;97287.81;5053352;28;20105;-75
2023/09/12 00:12:05;;;;;;;10.07;7.57;;;18.60;99.90;;;17.76;100.00;97279.25;5054435;28;20049;-76
2023/09/12 00:14:32;;;;;;;13.63;8.07;;;18.60;99.90;;;17.83;100.00;97283.09;5060990;28;20254;-76
2023/09/12 00:16:59;;;;;;;11.48;7.68;;;18.60;99.90;;;17.79;100.00;97276.41;5057325;28;20051;-76
2023/09/12 00:19:29;;;;;;;12.95;8.80;;;18.60;99.90;;;17.69;100.00;97273.63;5055423;28;20127;-76
2023/09/12 00:21:57;;;;;;;13.77;7.90;;;18.50;99.90;;;17.45;100.00;97268.47;5056283;28;20102;-76
2023/09/12 00:24:24;;;;;;;12.57;7.95;;;18.30;99.90;;;17.43;100.00;97272.97;5053611;28;20044;-75
2023/09/12 00:26:51;;;;;;;15.20;8.32;;;18.20;99.90;;;17.11;100.00;97276.22;5052919;28;20045;-76
2023/09/12 00:29:18;;;;;;;13.45;8.70;;;18.00;99.90;;;17.15;100.00;97276.81;5058693;28;20049;-76
2023/09/12 00:31:45;;;;;;;12.40;9.52;;;18.00;99.90;;;17.06;100.00;97273.09;5058822;28;20513;-75
2023/09/12 00:34:17;;;;;;;13.63;9.38;;;18.00;99.90;;;17.16;100.00;97264.56;5074107;28;20464;-75
2023/09/12 00:36:44;;;;;;;16.13;6.83;;;18.00;99.90;;;17.21;100.00;97267.66;5062340;28;20049;-76
2023/09/12 00:39:11;;;;;;;12.60;8.70;;;18.00;99.90;;;17.22;100.00;97262.31;5059978;28;20047;-76
2023/09/12 00:41:38;;;;;;;13.48;8.30;;;18.00;99.90;;;17.40;100.00;97257.44;5061435;28;20068;-76
2023/09/12 00:44:06;;;;;;;12.23;8.77;;;18.10;99.90;;;17.40;100.00;97252.19;5052252;28;20140;-75
2023/09/12 00:46:34;;;;;;;13.73;9.27;;;18.20;99.90;;;17.34;100.00;97250.06;5056694;28;20131;-75
2023/09/12 00:49:03;;;;;;;11.60;8.07;;;18.20;99.90;;;17.46;100.00;97243.06;5062602;28;20059;-75
2023/09/12 00:51:34;;;;;;;13.55;8.15;;;18.20;99.90;;;17.65;100.00;97240.72;5061701;28;20071;-76
2023/09/12 00:54:02;;;;;;;9.70;6.13;;;18.30;99.90;;;17.64;100.00;97225.06;5055937;28;20045;-75
2023/09/12 00:56:29;;;;;;;14.55;7.75;;;18.40;99.90;;;17.60;100.00;97227.06;5060486;28;20033;-74
2023/09/12 00:58:57;;;;;;;10.45;7.25;;;18.40;99.90;;;17.63;100.00;97231.25;5062647;28;20044;-76
2023/09/12 01:01:24;;;;;;;14.13;8.27;;;18.40;99.90;;;17.48;100.00;97233.28;5058254;28;20041;-75
2023/09/12 01:03:52;;;;;;;12.98;8.18;;;18.30;99.90;;;17.43;100.00;97232.81;5062902;28;20594;-76
2023/09/12 01:06:25;;;;;;;13.43;7.97;;;18.30;99.90;;;17.51;100.00;97246.16;5059720;28;20142;-75
2023/09/12 01:08:53;;;;;;;12.95;7.93;;;18.30;99.90;;;17.40;100.00;97240.88;5056948;28;20053;-75
2023/09/12 01:11:25;;;;;;;13.43;8.13;;;18.20;99.90;;;17.36;100.00;97240.28;5060370;28;20059;-75
2023/09/12 01:13:52;;;;;;;12.50;8.63;;;18.20;99.90;;;17.38;100.00;97251.50;5060394;28;20080;-75
2023/09/12 01:16:19;;;;;;;12.15;8.57;;;18.20;99.90;;;17.30;100.00;97249.44;5065916;28;20144;-75
2023/09/12 01:18:47;;;;;;;15.57;9.23;;;18.10;99.90;;;17.14;100.00;97244.50;5056912;28;20044;-75
2023/09/12 01:21:17;;;;;;;12.88;8.40;;;18.10;99.90;;;17.38;100.00;97251.50;5049008;28;20049;-75
2023/09/12 01:24:16;;;;;;;15.52;7.43;;;18.10;99.90;;;17.49;100.00;97234.94;5059948;28;20160;-76
2023/09/12 01:26:49;;;;;;;14.80;7.70;;;18.20;99.90;;;17.38;100.00;97243.63;5058205;28;20430;-76
2023/09/12 01:29:18;;;;;;;12.27;8.52;;;18.20;99.90;;;17.32;100.00;97239.69;5061166;28;20108;-76
2023/09/12 01:31:46;;;;;;;13.38;8.35;;;18.20;99.90;;;17.26;100.00;97239.31;5058931;28;20079;-76
2023/09/12 01:34:16;;;;;;;12.85;7.25;;;18.20;99.90;;;17.29;100.00;97239.91;5044593;28;20045;-76
2023/09/12 01:36:43;;;;;;;14.65;8.30;;;18.20;99.90;;;17.28;100.00;97237.41;5060341;28;20118;-75
2023/09/12 01:39:11;;;;;;;14.35;8.60;;;18.20;99.90;;;17.10;100.00;97237.81;5058753;28;20488;-75
2023/09/12 01:41:43;;;;;;;13.65;8.45;;;18.20;99.90;;;17.02;100.00;97237.56;5061408;28;20040;-76
2023/09/12 01:44:11;;;;;;;12.70;8.77;;;18.10;99.90;;;16.96;100.00;97238.00;5057813;28;20041;-75
2023/09/12 01:46:40;;;;;;;14.82;9.05;;;18.00;99.90;;;17.00;100.00;97233.38;5046947;28;20409;-74
2023/09/12 01:49:10;;;;;;;16.42;6.57;;;18.00;99.90;;;16.92;100.00;97233.94;5063360;28;20144;-76
2023/09/12 01:51:37;;;;;;;13.05;7.13;;;17.90;99.90;;;16.87;100.00;97228.19;5062407;28;20045;-75
2023/09/12 01:54:06;;;;;;;12.80;9.38;;;17.90;99.90;;;16.95;100.00;97231.09;5065308;28;20173;-75
2023/09/12 01:56:34;;;;;;;13.10;7.30;;;17.80;99.90;;;16.96;100.00;97229.31;5073145;28;20123;-75
2023/09/12 01:59:03;;;;;;;14.65;9.60;;;17.90;99.90;;;16.92;100.00;97223.44;5059144;28;20049;-75
2023/09/12 02:01:30;;;;;;;11.75;8.63;;;17.90;99.90;;;16.81;100.00;97223.41;5055829;28;20084;-76
2023/09/12 02:03:58;;;;;;;12.63;9.10;;;17.90;99.90;;;16.83;100.00;97227.63;5075274;28;20056;-75
2023/09/12 02:06:25;;;;;;;14.18;7.95;;;17.80;99.90;;;17.07;100.00;97229.34;5047448;28;20075;-76
2023/09/12 02:08:52;;;;;;;9.00;8.00;;;17.80;99.90;;;17.13;100.00;97221.88;5042676;28;20172;-75
2023/09/12 02:11:19;;;;;;;15.52;8.63;;;17.90;99.90;;;17.18;100.00;97224.16;5055245;28;20048;-76
2023/09/12 02:13:46;;;;;;;14.93;8.73;;;17.90;99.90;;;17.26;100.00;97213.91;5075552;28;20143;-76
2023/09/12 02:16:13;;;;;;;11.43;8.05;;;18.00;99.90;;;17.20;100.00;97211.75;5058224;28;20068;-75
2023/09/12 02:18:40;;;;;;;13.75;8.45;;;18.00;99.90;;;17.29;100.00;97210.22;5060070;28;20498;-76
2023/09/12 02:21:08;;;;;;;10.70;8.15;;;18.00;99.90;;;17.31;100.00;97209.16;5074962;28;20048;-76
2023/09/12 02:23:36;;;;;;;12.50;8.05;;;18.10;99.90;;;17.28;100.00;97201.50;5056768;28;20048;-75
2023/09/12 02:26:03;;;;;;;11.48;8.02;;;18.10;99.90;;;17.30;100.00;97204.84;5058316;28;20171;-75
2023/09/12 02:28:30;;;;;;;13.52;8.32;;;18.10;99.90;;;17.36;100.00;97206.19;5056165;28;20040;-76
2023/09/12 02:30:57;;;;;;;11.57;8.23;;;18.20;99.90;;;17.42;100.00;97204.88;5061006;28;20080;-76
2023/09/12 02:33:24;;;;;;;14.63;8.43;;;18.20;99.90;;;17.48;100.00;97201.78;5062779;28;20053;-75
2023/09/12 02:35:52;;;;;;;12.63;8.25;;;18.20;99.90;;;17.51;100.00;97204.16;5061017;28;20127;-76
2023/09/12 02:38:19;;;;;;;13.23;8.68;;;18.30;99.90;;;17.36;100.00;97200.94;5056163;28;20441;-75
2023/09/12 02:40:46;;;;;;;13.43;8.20;;;18.30;99.90;;;17.48;100.00;97194.75;5055109;28;20055;-76
2023/09/12 02:43:13;;;;;;;11.18;8.70;;;18.30;99.90;;;17.53;100.00;97191.78;5056028;28;20112;-76
2023/09/12 02:45:40;;;;;;;13.23;8.15;;;18.30;99.90;;;17.55;100.00;97192.50;5056006;28;20045;-76
2023/09/12 02:48:08;;;;;;;11.02;7.60;;;18.30;99.90;;;17.67;100.00;97196.78;5057137;28;20527;-75
2023/09/12 02:50:35;;;;;;;13.57;7.65;;;18.40;99.90;;;17.62;100.00;97195.47;5057561;28;20072;-75
2023/09/12 02:53:04;;;;;;;10.30;7.78;;;18.40;99.90;;;17.63;100.00;97198.00;5045625;28;20102;-76
2023/09/12 02:55:31;;;;;;;13.07;7.90;;;18.40;99.90;;;17.76;100.00;97182.94;5058103;28;20044;-75
2023/09/12 02:57:58;;;;;;;9.23;6.95;;;18.50;99.90;;;17.78;100.00;97193.34;5055233;28;20082;-75
2023/09/12 03:00:26;;;;;;;10.70;6.38;;;18.50;99.90;;;17.73;100.00;97184.97;5045352;28;20048;-75
2023/09/12 03:02:53;;;;;;;9.55;7.20;;;18.50;99.90;;;17.75;100.00;97198.81;5057911;28;20084;-76
2023/09/12 03:05:20;;;;;;;11.55;7.90;;;18.40;99.90;;;17.52;100.00;97200.59;5059444;28;20105;-75
2023/09/12 03:07:47;;;;;;;9.63;7.78;;;18.40;99.90;;;17.47;100.00;97208.84;5046618;28;20056;-75
2023/09/12 03:10:14;;;;;;;9.20;7.00;;;18.30;99.90;;;17.54;100.00;97203.94;5055958;28;20056;-76
2023/09/12 03:12:41;;;;;;;11.10;7.43;;;18.30;99.90;;;17.45;100.00;97208.13;5057867;28;20067;-75
2023/09/12 03:15:09;;;;;;;8.93;7.88;;;18.30;99.90;;;17.21;100.00;97207.34;5054528;28;20045;-76
2023/09/12 03:17:37;;;;;;;13.32;6.00;;;18.30;99.90;;;17.25;100.00;97217.50;5062255;28;20041;-75
2023/09/12 03:20:08;;;;;;;10.95;8.05;;;18.20;99.90;;;17.22;100.00;97222.13;5055278;28;20053;-74
2023/09/12 03:22:37;;;;;;;13.70;8.32;;;18.20;99.90;;;17.16;100.00;97223.44;5064645;28;20080;-75
2023/09/12 03:25:06;;;;;;;11.18;7.72;;;18.10;99.90;;;17.43;100.00;97210.00;5070335;28;20111;-76
2023/09/12 03:27:34;;;;;;;11.10;5.25;;;18.10;99.90;;;17.80;100.00;97201.94;5061810;28;20138;-75
2023/09/12 03:30:01;;;;;;;12.48;6.50;;;18.20;99.90;;;17.77;100.00;97195.13;5056432;28;20056;-75
2023/09/12 03:32:28;;;;;;;11.65;6.72;;;18.30;99.90;;;17.58;100.00;97207.16;5059577;28;20049;-75
2023/09/12 03:34:55;;;;;;;10.38;7.65;;;18.30;99.90;;;17.72;100.00;97207.78;5072093;28;20429;-76
2023/09/12 03:37:22;;;;;;;15.43;7.63;;;18.40;99.90;;;17.69;100.00;97210.63;5058700;28;20044;-76
2023/09/12 03:39:49;;;;;;;14.82;8.00;;;18.40;99.90;;;17.74;100.00;97205.88;5058633;28;20051;-76
2023/09/12 03:42:16;;;;;;;13.00;8.48;;;18.50;99.90;;;17.76;100.00;97197.88;5059887;28;20076;-75
2023/09/12 03:44:43;;;;;;;11.98;7.72;;;18.50;99.90;;;17.87;100.00;97202.31;5054520;28;20067;-76
2023/09/12 03:47:10;;;;;;;18.42;9.07;;;18.50;99.90;;;17.79;100.00;97200.28;5057864;28;20052;-76
2023/09/12 03:49:37;;;;;;;12.93;8.10;;;18.50;99.90;;;17.69;100.00;97199.28;5070954;28;20053;-75
2023/09/12 03:52:05;;;;;;;12.50;5.75;;;18.60;99.90;;;17.73;100.00;97201.56;5058090;28;20505;-75
2023/09/12 03:54:32;;;;;;;9.48;7.22;;;18.60;99.90;;;17.74;100.00;97198.00;5057747;28;20416;-75
2023/09/12 03:57:00;;;;;;;9.60;5.50;;;18.60;99.90;;;17.74;100.00;97205.88;5060673;28;20044;-75
2023/09/12 03:59:27;;;;;;;12.43;7.10;;;18.50;99.90;;;17.72;100.00;97213.03;5040180;28;20072;-75
2023/09/12 04:01:55;;;;;;;13.02;7.47;;;18.50;99.90;;;17.52;100.00;97206.69;5053755;28;20044;-76
2023/09/12 04:04:22;;;;;;;11.70;7.97;;;18.40;99.90;;;17.50;100.00;97208.59;5060825;28;20135;-76
2023/09/12 04:06:50;;;;;;;12.45;7.90;;;18.40;99.90;;;17.55;100.00;97209.06;5061643;28;20059;-76
2023/09/12 04:09:17;;;;;;;14.45;8.27;;;18.30;99.90;;;17.56;100.00;97199.41;5054140;28;20118;-75
2023/09/12 04:11:44;;;;;;;11.25;7.82;;;18.40;99.90;;;17.60;100.00;97203.47;5057172;28;20060;-75
2023/09/12 04:14:14;;;;;;;15.45;9.20;;;18.40;99.90;;;17.37;100.00;97207.84;5054709;28;20128;-75
2023/09/12 04:16:47;;;;;;;11.65;8.40;;;18.30;99.90;;;17.24;100.00;97210.59;5056133;28;20176;-76
2023/09/12 04:19:14;;;;;;;12.07;9.57;;;18.20;99.90;;;17.12;100.00;97214.94;5054289;28;20045;-74
2023/09/12 04:21:41;;;;;;;11.80;8.77;;;18.20;99.90;;;17.18;100.00;97216.28;5060376;28;20402;-74
2023/09/12 04:24:09;;;;;;;15.48;9.63;;;18.10;99.90;;;17.08;100.00;97212.66;5058891;28;20052;-74
2023/09/12 04:26:37;;;;;;;11.23;6.57;;;18.10;99.90;;;17.11;100.00;97222.94;5056635;28;20041;-74
2023/09/12 04:29:04;;;;;;;12.88;7.22;;;18.00;99.90;;;17.00;100.00;97222.91;5058821;28;20531;-74
2023/09/12 04:31:31;;;;;;;10.77;6.70;;;18.00;99.90;;;16.87;100.00;97222.97;5058486;28;20130;-74
2023/09/12 04:33:58;;;;;;;12.55;7.25;;;17.90;99.90;;;16.75;100.00;97215.97;5054856;28;20049;-75
2023/09/12 04:36:25;;;;;;;10.90;8.50;;;17.80;99.90;;;16.93;100.00;97210.25;5055288;28;20045;-75
2023/09/12 04:38:52;;;;;;;8.85;6.60;;;17.80;99.90;;;16.92;100.00;97203.34;5054791;28;20048;-74
2023/09/12 04:41:20;;;;;;;12.15;5.72;;;17.80;99.90;;;16.93;100.00;97207.63;5056073;28;20045;-74
2023/09/12 04:43:48;;;;;;;10.45;8.60;;;17.70;99.90;;;16.82;100.00;97201.50;5071553;28;20596;-74
2023/09/12 04:46:14;;;;;;;21.63;7.68;;;17.70;99.90;;;16.66;100.00;97201.75;5053825;28;20110;-75
2023/09/12 04:48:43;;;;;;;14.23;9.57;;;17.60;99.90;;;16.59;100.00;97204.00;5054174;28;20048;-74
2023/09/12 04:51:11;;;;;;;12.43;8.63;;;17.60;99.90;;;16.73;100.00;97198.56;5053338;28;20056;-74
2023/09/12 04:53:40;;;;;;;13.93;6.80;;;17.60;99.90;;;16.83;100.00;97195.28;5056091;28;20053;-74
2023/09/12 04:56:09;;;;;;;10.13;8.13;;;17.60;99.90;;;16.83;100.00;97196.16;5053446;28;20577;-75
2023/09/12 04:58:36;;;;;;;15.43;10.05;;;17.60;99.90;;;16.62;100.00;97198.50;5041055;28;20124;-73
2023/09/12 05:01:03;;;;;;;12.98;8.85;;;17.60;99.90;;;16.65;100.00;97198.31;5042426;28;20133;-73
2023/09/12 05:03:33;;;;;;;13.18;9.50;;;17.50;99.90;;;16.54;100.00;97192.19;5060177;28;20071;-75
2023/09/12 05:06:00;;;;;;;12.88;8.70;;;17.50;99.90;;;16.70;100.00;97200.59;5062458;28;20041;-74
2023/09/12 05:08:28;;;;;;;11.52;8.93;;;17.50;99.90;;;16.64;100.00;97195.78;5058759;28;20048;-74
2023/09/12 05:10:55;;;;;;;12.77;8.70;;;17.50;99.90;;;16.55;100.00;97193.84;5055120;28;20136;-74
2023/09/12 05:13:23;;;;;;;10.88;8.52;;;17.40;99.90;;;16.66;100.00;97199.97;5056058;28;20079;-74
2023/09/12 05:15:50;;;;;;;10.27;6.35;;;17.40;99.90;;;16.70;100.00;97190.13;5056775;28;20059;-75
2023/09/12 05:18:17;;;;;;;14.05;6.57;;;17.40;99.90;;;16.59;100.00;97193.50;5050438;28;20131;-76
2023/09/12 05:20:45;;;;;;;11.02;9.25;;;17.30;99.90;;;16.43;100.00;97201.66;5059760;28;20048;-76
2023/09/12 05:23:15;;;;;;;11.73;7.53;;;17.20;99.90;;;16.18;100.00;97210.44;5056634;28;20590;-76
2023/09/12 05:25:42;;;;;;;15.68;10.93;;;17.10;99.90;;;16.27;100.00;97227.28;5059538;28;20049;-76
2023/09/12 05:28:15;;;;;;;13.38;7.95;;;16.90;99.90;;;16.15;100.00;97236.84;5058826;28;20053;-74
2023/09/12 05:30:43;;;;;;;13.90;7.45;;;16.90;99.90;;;16.08;100.00;97223.34;5055804;28;20067;-75
2023/09/12 05:33:10;;;;;;;15.05;9.93;;;16.90;99.90;;;16.07;100.00;97228.69;5033023;28;20524;-76
2023/09/12 05:35:41;;;;;;;10.25;9.13;;;16.90;99.90;;;16.14;100.00;97231.69;5045725;28;20068;-75
2023/09/12 05:38:08;;;;;;;11.68;9.27;;;16.90;99.90;;;16.29;100.00;97228.00;5060818;28;20044;-75
2023/09/12 05:40:35;;;;;;;9.43;8.18;;;16.90;99.90;;;16.36;100.00;97233.63;5058848;28;20045;-75
2023/09/12 05:43:02;;;;;;;9.90;6.43;;;17.00;99.90;;;16.36;100.00;97234.47;5059373;28;20053;-75
2023/09/12 05:45:32;;;;;;;11.20;6.78;;;17.10;99.90;;;16.49;100.00;97242.31;5064558;28;20131;-75
2023/09/12 05:48:00;;;;;;;13.57;8.70;;;17.10;99.90;;;16.62;100.00;97239.63;5062474;28;20053;-75
2023/09/12 05:50:27;;;;;;;10.02;6.10;;;17.10;99.90;;;16.50;100.00;97236.94;5062873;28;20483;-75
2023/09/12 05:52:54;;;;;;;12.52;6.53;;;17.10;99.90;;;16.45;100.00;97244.28;5059627;28;20804;-76
2023/09/12 05:55:22;;;;;;;11.18;6.57;;;17.00;99.90;;;16.52;100.00;97242.06;5064015;28;20052;-75
2023/09/12 05:57:52;;;;;;;11.70;9.05;;;16.90;99.90;;;16.48;100.00;97236.19;5063720;28;20048;-75
2023/09/12 06:00:21;;;;;;;10.32;9.15;;;17.10;99.90;;;16.54;100.00;97241.97;5060529;28;20052;-75
2023/09/12 06:02:53;;;;;;;14.45;9.45;;;17.10;99.90;;;16.65;100.00;97244.63;5057205;28;20080;-74
2023/09/12 06:05:20;;;;;;;13.77;7.07;;;17.10;99.90;;;16.50;100.00;97246.56;5045279;28;20964;-74
2023/09/12 06:07:47;;;;;;;13.48;6.60;;;17.10;99.90;;;16.45;100.00;97239.06;5055271;28;20064;-75
2023/09/12 06:10:14;;;;;;;15.48;7.78;;;17.00;99.90;;;16.59;100.00;97240.66;5040009;28;20048;-74
2023/09/12 06:12:42;;;;;;;14.73;8.02;;;17.10;99.90;;;16.65;100.00;97235.00;5063156;28;20536;-74
2023/09/12 06:15:10;;;;;;;14.10;8.10;;;17.10;99.90;;;16.64;100.00;97227.25;5063232;28;20070;-74
2023/09/12 06:17:38;;;;;;;11.82;8.02;;;17.10;99.90;;;16.54;100.00;97232.31;5052648;28;20091;-74
2023/09/12 06:20:06;;;;;;;16.48;7.68;;;17.10;99.90;;;16.61;100.00;97233.53;5050576;28;20135;-75
2023/09/12 06:22:34;;;;;;;14.32;11.82;;;17.00;99.90;;;16.66;100.00;97233.22;5057109;28;20052;-74
2023/09/12 06:25:01;;;;;;;13.70;10.55;;;17.00;99.90;;;16.77;100.00;97233.25;5064512;28;20045;-75
2023/09/12 06:27:31;;;;;;;16.90;10.73;;;17.00;99.90;;;16.82;100.00;97232.97;5062514;28;20079;-74
2023/09/12 06:29:59;;;;;;;12.07;9.93;;;17.00;99.90;;;17.05;100.00;97232.09;5061337;28;20056;-74
2023/09/12 06:32:27;;;;;;;16.92;8.30;;;17.10;99.90;;;17.08;100.00;97236.25;5055649;28;20052;-75
2023/09/12 06:34:57;;;;;;;12.68;7.95;;;17.30;99.90;;;17.40;100.00;97228.59;5056752;28;20049;-75
2023/09/12 06:37:24;;;;;;;19.80;8.27;;;17.40;99.90;;;17.58;100.00;97230.78;5056910;28;20590;-74
2023/09/12 06:39:51;;;;;;;13.38;7.60;;;17.70;99.90;;;17.73;100.00;97233.06;5062662;28;20045;-75
2023/09/12 06:42:18;;;;;;;11.15;7.32;;;17.90;99.90;;;17.96;100.00;97222.59;5061254;28;20041;-74
2023/09/12 06:44:45;;;;;;;14.05;8.07;;;18.10;99.90;;;18.16;100.00;97226.28;5058393;28;20246;-75
2023/09/12 06:47:13;;;;;;;14.20;7.70;;;18.30;99.90;;;18.28;100.00;97233.19;5057336;28;20044;-74
2023/09/12 06:49:41;;;;;;;13.98;7.57;;;18.40;99.90;;;18.51;100.00;97231.34;5060502;28;20052;-75
2023/09/12 06:52:09;;;;;;;20.35;7.95;;;18.50;99.90;;;18.64;100.00;97225.94;5045253;28;20045;-75
2023/09/12 06:54:36;;;;;;;15.70;7.15;;;18.70;99.90;;;19.06;100.00;97231.31;5057385;28;20084;-75
2023/09/12 06:57:04;;;;;;;11.32;6.47;;;19.00;99.90;;;19.36;100.00;97224.47;5060501;28;20045;-74
2023/09/12 06:59:31;;;;;;;10.57;6.38;;;19.40;99.90;;;19.59;100.00;97214.63;5073852;28;20048;-75
2023/09/12 07:01:58;;;;;;;14.60;7.55;;;19.60;99.90;;;19.77;100.00;97204.34;5062685;28;20394;-75
2023/09/12 07:04:26;;;;;;;10.15;7.63;;;19.90;99.90;;;19.88;100.00;97195.53;5054482;28;20164;-75
2023/09/12 07:06:53;;;;;;;12.38;6.97;;;20.10;99.90;;;20.19;100.00;97198.97;5057601;28;20048;-74
2023/09/12 07:09:20;;;;;;;16.63;7.50;;;20.30;99.90;;;20.29;100.00;97191.91;5060186;28;20119;-75
2023/09/12 07:11:48;;;;;;;9.32;6.72;;;20.50;99.90;;;20.40;100.00;97188.31;5042951;28;20140;-75
2023/09/12 07:14:15;;;;;;;11.65;6.88;;;20.70;99.90;;;20.46;100.00;97193.88;5060444;28;20456;-74
2023/09/12 07:16:42;;;;;;;11.80;8.32;;;20.90;99.90;;;20.46;100.00;97199.16;5057769;28;20048;-75
2023/09/12 07:19:10;;;;;;;10.52;6.40;;;20.90;99.90;;;20.59;100.00;97193.63;5059873;28;20106;-75
2023/09/12 07:21:37;;;;;;;12.52;6.57;;;21.10;99.90;;;20.74;100.00;97203.81;5057076;28;20146;-74
2023/09/12 07:24:05;;;;;;;12.77;6.70;;;21.20;99.90;;;20.83;100.00;97205.59;5057619;28;20405;-75
2023/09/12 07:26:32;;;;;;;10.45;6.72;;;21.30;99.90;;;20.95;100.00;97207.13;5057253;28;20048;-73
2023/09/12 07:29:02;;;;;;;12.73;6.35;;;21.40;99.90;;;21.07;100.00;97216.59;5044843;28;20155;-74
2023/09/12 07:31:29;;;;;;;11.00;7.05;;;21.40;99.90;;;21.20;100.00;97213.63;5056828;28;20049;-74
2023/09/12 07:33:56;;;;;;;14.27;7.38;;;21.40;99.90;;;21.24;100.00;97214.19;5058137;28;20066;-75
2023/09/12 07:36:24;;;;;;;12.73;7.47;;;21.40;99.90;;;21.30;100.00;97214.47;5057816;28;20045;-75
2023/09/12 07:38:51;;;;;;;12.30;7.15;;;21.50;99.90;;;21.35;100.00;97221.97;5046458;28;20049;-75
2023/09/12 07:41:19;;;;;;;13.13;7.10;;;21.60;99.90;;;21.26;100.00;97222.81;5061177;28;20048;-75
2023/09/12 07:43:46;;;;;;;9.18;7.28;;;21.80;99.90;;;21.36;100.00;97225.44;5058242;28;20057;-75
2023/09/12 07:46:13;;;;;;;13.18;8.10;;;21.70;99.90;;;21.48;100.00;97227.81;5063030;28;20053;-75
2023/09/12 07:48:40;;;;;;;11.00;8.48;;;21.80;99.90;;;21.91;100.00;97230.88;5046997;28;20117;-75
2023/09/12 07:51:14;;;;;;;12.63;7.32;;;21.90;99.90;;;21.84;100.00;97235.91;5057256;28;20083;-75
2023/09/12 07:53:41;;;;;;;18.15;7.28;;;21.90;99.90;;;22.04;100.00;97235.84;5059433;28;20051;-75
2023/09/12 07:56:10;;;;;;;11.35;7.32;;;22.00;99.90;;;22.39;100.00;97226.38;5056355;28;20055;-75
2023/09/12 07:58:41;;;;;;;12.00;6.85;;;22.10;99.90;;;23.06;100.00;97233.03;5060069;28;20036;-75
2023/09/12 08:01:09;;;;;;;12.25;7.40;;;22.30;99.90;;;23.11;100.00;97240.53;5055737;28;20048;-74
2023/09/12 08:03:39;;;;;;;17.23;8.25;;;22.60;99.90;;;23.00;100.00;97254.81;5061327;28;20135;-75
2023/09/12 08:06:07;;;;;;;10.82;7.45;;;22.80;99.90;;;23.29;100.00;97248.47;5061764;28;20060;-75
2023/09/12 08:08:34;;;;;;;8.70;6.28;;;23.40;99.90;;;23.17;100.00;97248.69;5056319;28;20048;-75
2023/09/12 08:11:02;;;;;;;13.05;7.63;;;23.80;99.90;;;22.28;100.00;97249.41;5038838;28;20059;-75
2023/09/12 08:13:30;;;;;;;8.80;6.55;;;23.70;99.90;;;23.13;100.00;97249.97;5058149;28;20048;-75
2023/09/12 08:15:58;;;;;;;17.85;8.00;;;24.00;99.90;;;23.38;100.00;97256.31;5058041;28;20079;-76
2023/09/12 08:18:30;;;;;;;10.13;6.38;;;24.60;99.90;;;24.27;100.00;97254.41;5055758;28;20553;-74
2023/09/12 08:20:58;;;;;;;13.18;6.93;;;25.10;99.90;;;24.18;100.00;97247.41;5062928;28;20511;-76
2023/09/12 08:23:26;;;;;;;8.98;6.28;;;25.90;99.90;;;25.34;100.00;97247.53;5044282;28;20141;-75
2023/09/12 08:25:53;;;;;;;10.23;6.10;;;26.50;99.90;;;25.83;100.00;97262.59;5055556;28;20056;-76
2023/09/12 08:28:21;;;;;;;11.18;6.80;;;27.10;99.90;;;24.40;100.00;97260.09;5055645;28;20099;-76
2023/09/12 08:30:49;;;;;;;8.85;5.97;;;26.30;99.90;;;24.39;100.00;97257.59;5061216;28;20497;-76
2023/09/12 08:33:16;;;;;;;15.32;7.20;;;25.40;99.90;;;23.10;100.00;97254.72;5054694;28;20063;-76
2023/09/12 08:35:44;;;;;;;9.48;6.45;;;24.60;99.90;;;23.25;100.00;97247.91;5060537;28;20041;-76
2023/09/12 08:38:13;;;;;;;17.92;7.45;;;24.00;99.90;;;23.25;100.00;97247.91;5056720;28;20135;-76
2023/09/12 08:40:41;;;;;;;9.60;7.10;;;23.70;99.90;;;23.38;100.00;97251.00;5044848;28;20048;-75
2023/09/12 08:43:09;;;;;;;20.33;7.68;;;23.40;99.90;;;23.07;100.00;97261.16;5057793;28;20124;-75
2023/09/12 08:45:36;;;;;;;12.43;7.55;;;23.30;99.90;;;22.96;100.00;97266.66;5057834;28;20091;-74
2023/09/12 08:48:05;;;;;;;14.30;6.72;;;23.20;99.90;;;23.12;100.00;97263.34;5043676;28;20053;-75
2023/09/12 08:50:34;;;;;;;14.02;7.10;;;23.20;99.90;;;23.30;100.00;97258.06;5056601;28;20086;-74
2023/09/12 08:53:01;;;;;;;14.98;7.78;;;23.20;99.90;;;23.31;100.00;97265.00;5059147;28;20079;-75
2023/09/12 08:55:35;;;;;;;15.93;7.55;;;23.20;99.90;;;22.96;100.00;97267.47;5054104;28;20146;-75
2023/09/12 08:58:06;;;;;;;11.43;7.72;;;23.30;99.90;;;22.88;100.00;97263.94;5060388;28;20421;-76
2023/09/12 09:00:36;;;;;;;18.38;8.65;;;23.10;99.90;;;22.47;100.00;97255.56;5070433;28;20068;-75
2023/09/12 09:03:04;;;;;;;16.67;8.55;;;23.10;99.90;;;22.67;100.00;97253.63;5060250;28;20063;-75
2023/09/12 09:05:33;;;;;;;12.55;7.13;;;23.00;99.90;;;22.79;100.00;97257.72;5054509;28;20045;-76
2023/09/12 09:08:01;;;;;;;14.23;8.10;;;23.00;99.90;;;23.03;100.00;97259.81;5060967;28;20056;-75
2023/09/12 09:10:32;;;;;;;10.85;7.72;;;22.90;99.90;;;22.77;100.00;97263.16;5056690;28;20037;-75
2023/09/12 09:13:18;;;;;;;13.35;8.43;;;23.10;99.90;;;22.93;100.00;97262.50;5059642;28;20076;-75
2023/09/12 09:15:45;;;;;;;15.95;8.18;;;23.10;99.90;;;23.02;100.00;97259.97;5054839;28;20147;-75
2023/09/12 09:18:13;;;;;;;13.73;8.15;;;23.30;99.90;;;22.88;100.00;97253.34;5060242;28;20094;-75
2023/09/12 09:20:48;;;;;;;11.52;7.85;;;23.30;99.90;;;22.94;100.00;97258.03;5060964;28;20073;-75
2023/09/12 09:23:15;;;;;;;12.93;7.57;;;23.40;99.90;;;23.41;100.00;97259.63;5058649;28;20052;-75
2023/09/12 09:25:51;;;;;;;11.02;7.53;;;23.70;99.90;;;23.67;100.00;97268.41;5057626;28;20060;-75
2023/09/12 09:28:21;;;;;;;14.68;7.70;;;23.60;99.90;;;23.78;100.00;97265.56;5048521;28;20515;-75
2023/09/12 09:30:51;;;;;;;18.25;7.78;;;23.60;99.90;;;23.88;100.00;97268.13;5054026;28;20056;-75
2023/09/12 09:33:19;;;;;;;15.40;8.23;;;24.00;99.90;;;23.78;100.00;97254.94;5058402;28;20192;-75
2023/09/12 09:35:51;;;;;;;12.90;7.00;;;24.30;99.90;;;24.05;100.00;97265.56;5061164;28;20151;-75
2023/09/12 09:38:23;;;;;;;9.68;7.28;;;24.20;99.90;;;24.33;100.00;97267.00;5060579;28;20448;-75
2023/09/12 09:40:50;;;;;;;9.45;6.85;;;24.40;99.90;;;25.22;100.00;97257.63;5061347;28;20134;-75
2023/09/12 09:43:21;;;;;;;12.50;7.13;;;24.90;99.90;;;26.49;100.00;97265.91;5053857;28;20044;-75
2023/09/12 09:45:49;;;;;;;15.23;6.35;;;26.30;99.90;;;27.82;100.00;97273.66;5057376;28;20064;-75
2023/09/12 09:48:28;;;;;;;10.20;5.85;;;27.50;99.90;;;28.81;100.00;97269.88;5045564;28;20518;-76
2023/09/12 09:51:03;;;;;;;8.27;6.57;;;28.70;99.90;;;27.00;100.00;97284.13;5061543;28;20082;-76
2023/09/12 09:53:34;;;;;;;9.35;6.10;;;28.80;99.90;;;27.13;100.00;97282.53;5058917;28;20067;-76
2023/09/12 09:56:11;;;;;;;;;;;28.10;99.90;;;27.86;100.00;97284.84;5043480;28;20542;-75
2023/09/12 09:58:59;;;;;;;9.13;6.75;;;28.00;99.90;;;27.74;100.00;97281.75;5062341;28;19931;-75
2023/09/12 10:01:29;;;;;;;8.48;5.95;;;28.20;99.90;;;27.77;100.00;97280.56;5054890;28;20052;-74
2023/09/12 10:04:00;;;;;;;12.68;5.80;;;28.10;99.90;;;28.47;100.00;97285.53;5059078;28;20057;-77
2023/09/12 10:06:28;;;;;;;15.70;6.05;;;27.80;99.90;;;28.52;100.00;97284.97;5062006;28;20044;-75
2023/09/12 10:08:58;;;;;;;12.05;6.70;;;27.50;99.90;;;28.52;100.00;97279.63;5061342;28;20051;-77
2023/09/12 10:11:32;;;;;;;10.90;6.68;;;27.80;99.90;;;28.53;100.00;97278.59;5054250;28;20052;-76
2023/09/12 10:14:04;;;;;;;9.40;5.50;;;28.00;99.90;;;28.49;100.00;97278.16;5055086;28;20044;-76